El Centro Naf Airport
KNJK : now visible

Airfield :











YOU CAN JOIN US ON...

 
LOGIN :

Register | Disclaimer

   EN    FR    IT 

 









Legend :    VFR   Marginal VFR   IFR   Intensive IFR   Very Intensive IFR
Visi :
Ceiling :
>= 8 km
>= 3000ft
5 to 8 km
1000 to 3000 ft
1500m to 5 km
500 to 1000 ft
800 to 1500m
200 to 500 ft
< 800m
< 200 ft
Symbols :   Thunderstorms  Fog  Heavy snow  Heavy precipitations  Wind > 20 kt






- Airport Elevation : -42 ft


KNJK - El Centro Naf

CURRENT METAR :
  • 260056Z AUTO 33006KT 10SM CLR 39/M11 A2972 RMK AO2 SLP080 T03891111 $

EXPIRED METARs :
  • 252356Z AUTO VRB06KT 10SM CLR 38/M12 A2974 RMK AO2 SLP085 T03831122 10389 20344 56019 $
  • 252256Z AUTO 32006KT 10SM CLR 38/M12 A2974 RMK AO2 SLP088 T03781117 $

Expired Forecast.
KZLA FIR / North America



MET'MAP, your aeronautical weather chart ! - Copyright ORBIFLY December 2007 - Disclaimer

ORBIFLY MET'MAP TEAM :

Programming & Development : Alexandra Zaïnal
Concept & original design : Baudouin d'Aumeries
Assistance for programming : Marc-Olivier Méhu
Technical & hardware support : Manuel Goepfert

Contact : metmap@orbifly.com




SOURCES & CREDITS :

   NOAA       Earth
Advisory